• Join FlightAware (Why Join?)
  • Login
  • US Flag 
10:46AM EDT


 

Airport Tracker/Info


-or-


 

Live Flight TrackerFlight Track Log ✈ CXA883 ✈ 17-Apr-2014 ✈ ZSFZ / FOC - RCSS / TSA

Flight Track Log - Related Links

Times and Time Zones

All times are in EDT time to prevent confusion due to time zone crossing. See the CXA883 flight status page for this flight to view local times or setup timezone preferences in your user account.

Time Position Orientation Groundspeed Altitude Reporting Facility
EDT Latitude Longitude Course Direction KTS MPH feet Rate Location/Type
06:56AM 25.7749 120.0188 117° Southeast  Level Estimated
06:57AM 25.7615 120.0484 117° Southeast  Level Estimated
06:58AM 25.7481 120.0780 117° Southeast  Level Estimated
06:59AM 25.7347 120.1076 117° Southeast  Level Estimated
07:00AM 25.7213 120.1371 117° Southeast  Level Estimated
07:01AM 25.7079 120.1667 117° Southeast  Level Estimated
07:02AM 25.6945 120.1963 117° Southeast  Level Estimated
07:03AM 25.6810 120.2258 117° Southeast  Level Estimated
07:04AM 25.6676 120.2553 117° Southeast  Level Estimated
07:05AM 25.6542 120.2849 117° Southeast  Level Estimated
07:06AM 25.6407 120.3144 117° Southeast  Level Estimated
07:07AM 25.6273 120.3439 117° Southeast  Level Estimated
07:08AM 25.6138 120.3734 117° Southeast  Level Estimated
07:09AM 25.6004 120.4029 117° Southeast  Level Estimated
07:10AM 25.5869 120.4324 117° Southeast  Level Estimated
07:11AM 25.5734 120.4619 117° Southeast  Level Estimated
07:12AM 25.5600 120.4914 117° Southeast  Level Estimated
07:13AM 25.5465 120.5209 117° Southeast  Level Estimated
07:14AM 25.5330 120.5504 117° Southeast  Level Estimated
07:15AM 25.5195 120.5798 117° Southeast  Level Estimated
07:16AM 25.5060 120.6093 117° Southeast  Level Estimated
07:17AM 25.4925 120.6388 117° Southeast  Level Estimated
07:18AM 25.4790 120.6682 117° Southeast  Level Estimated
07:19AM 25.4655 120.6976 117° Southeast  Level Estimated
07:20AM 25.4519 120.7271 117° Southeast  Level Estimated
07:21AM 25.4384 120.7565 117° Southeast  Level Estimated
07:22AM 25.4249 120.7859 117° Southeast  Level Estimated
07:23AM 25.4113 120.8153 117° Southeast  Level Estimated
07:24AM 25.3978 120.8447 117° Southeast  Level Estimated
07:25AM 25.3842 120.8742 117° Southeast  Level Estimated
07:26AM 25.3707 120.9035 117° Southeast  Level Estimated
07:27AM 25.3571 120.9329 117° Southeast  Level Estimated
07:28AM 25.3435 120.9623 117° Southeast  Level Estimated
07:29AM 25.3300 120.9917 117° Southeast  Level Estimated
07:30AM 25.3164 121.0211 117° Southeast  Level Estimated
07:31AM 25.3028 121.0504 117° Southeast  Level Estimated
07:32AM 25.2892 121.0798 117° Southeast  Level Estimated
07:33AM 25.2756 121.1091 117° Southeast  Level Estimated
07:34AM 25.2620 121.1385 117° Southeast  Level Estimated
07:35AM 25.2484 121.1678 117° Southeast  Level Estimated
07:36AM 25.2348 121.1971 117° Southeast  Level Estimated
07:37AM 25.2211 121.2264 117° Southeast  Level Estimated
07:38AM 25.2075 121.2558 117° Southeast  Level Estimated
07:39AM 25.1939 121.2851 117° Southeast  Level Estimated
07:40AM 25.1802 121.3144 117° Southeast  Level Estimated
07:41AM 25.1666 121.3437 117° Southeast  Level Estimated
07:42AM 25.1529 121.3730 117° Southeast  Level Estimated
07:43AM 25.1393 121.4022 117° Southeast  Level Estimated
07:44AM 25.1256 121.4315 117° Southeast  Level Estimated
07:44AM 25.2336 121.4146 250° West 227 261 7,300  Level FlightAware ADS-B (KDFW)
07:44AM 25.2243 121.3915 245° Southwest 221 254 7,000 -960 Descending FlightAware ADS-B (KDFW)
07:47AM 25.1136 121.2848 171° South 194 223 4,600 -960 Descending FlightAware ADS-B (KDFW)
07:49AM 25.1042 121.3415 100° East  Level Estimated
07:50AM 25.0989 121.3739 100° East  Level Estimated
07:51AM 25.0935 121.4063 100° East  Level Estimated
07:52AM 25.0882 121.4387 100° East  Level Estimated
07:53AM 25.0828 121.4711 100° East  Level Estimated
07:54AM 25.0774 121.5035 100° East  Level Estimated
07:55AM 25.0721 121.5359 100° East  Level Estimated
07:56AM 25.0694 121.5517 100° East  Level Estimated
07:57AM 25.0694 121.5517 North  Level Estimated
07:58AM 25.0694 121.5517 North  Level Estimated
07:59AM 25.0694 121.5517 North  Level Estimated
08:00AM 25.0694 121.5517 North  Level Estimated
08:01AM 25.0694 121.5517 North  Level Estimated